sensor_id;sensor_type;location;lat;lon;timestamp;P1;durP1;ratioP1;P2;durP2;ratioP2
66886;SDS011;67239;51.680;5.976;2023-04-03T00:01:12;6.75;;;3.75;;
66886;SDS011;67239;51.680;5.976;2023-04-03T00:03:40;7.63;;;3.90;;
66886;SDS011;67239;51.680;5.976;2023-04-03T00:06:08;5.22;;;3.65;;
66886;SDS011;67239;51.680;5.976;2023-04-03T00:08:38;9.52;;;3.85;;
66886;SDS011;67239;51.680;5.976;2023-04-03T00:11:07;5.57;;;4.05;;
66886;SDS011;67239;51.680;5.976;2023-04-03T00:13:36;4.53;;;3.30;;
66886;SDS011;67239;51.680;5.976;2023-04-03T00:16:04;7.28;;;3.63;;
66886;SDS011;67239;51.680;5.976;2023-04-03T00:18:33;7.40;;;3.55;;
66886;SDS011;67239;51.680;5.976;2023-04-03T00:21:00;6.57;;;3.53;;
66886;SDS011;67239;51.680;5.976;2023-04-03T00:23:28;6.05;;;3.60;;
66886;SDS011;67239;51.680;5.976;2023-04-03T00:25:55;6.90;;;3.53;;
66886;SDS011;67239;51.680;5.976;2023-04-03T00:28:22;5.90;;;3.42;;
66886;SDS011;67239;51.680;5.976;2023-04-03T00:30:49;8.27;;;3.92;;
66886;SDS011;67239;51.680;5.976;2023-04-03T00:33:17;4.80;;;3.50;;
66886;SDS011;67239;51.680;5.976;2023-04-03T00:35:48;6.32;;;3.53;;
66886;SDS011;67239;51.680;5.976;2023-04-03T00:38:16;6.88;;;3.75;;
66886;SDS011;67239;51.680;5.976;2023-04-03T00:40:45;7.00;;;3.42;;
66886;SDS011;67239;51.680;5.976;2023-04-03T00:43:16;7.45;;;3.42;;
66886;SDS011;67239;51.680;5.976;2023-04-03T00:45:51;5.53;;;3.25;;
66886;SDS011;67239;51.680;5.976;2023-04-03T00:51:18;5.20;;;3.17;;
66886;SDS011;67239;51.680;5.976;2023-04-03T00:54:09;5.38;;;3.22;;
66886;SDS011;67239;51.680;5.976;2023-04-03T00:56:36;6.47;;;3.53;;
66886;SDS011;67239;51.680;5.976;2023-04-03T00:59:06;6.63;;;3.72;;
66886;SDS011;67239;51.680;5.976;2023-04-03T01:01:41;5.60;;;3.58;;
66886;SDS011;67239;51.680;5.976;2023-04-03T01:07:05;6.80;;;3.33;;
66886;SDS011;67239;51.680;5.976;2023-04-03T01:09:42;7.88;;;3.92;;
66886;SDS011;67239;51.680;5.976;2023-04-03T01:15:15;5.20;;;3.17;;
66886;SDS011;67239;51.680;5.976;2023-04-03T01:17:51;6.25;;;3.47;;
66886;SDS011;67239;51.680;5.976;2023-04-03T01:25:41;3.77;;;2.40;;
66886;SDS011;67239;51.680;5.976;2023-04-03T01:28:17;4.43;;;3.05;;
66886;SDS011;67239;51.680;5.976;2023-04-03T01:31:13;6.18;;;3.22;;
66886;SDS011;67239;51.680;5.976;2023-04-03T01:34:02;6.47;;;3.10;;
66886;SDS011;67239;51.680;5.976;2023-04-03T01:36:31;3.92;;;2.65;;
66886;SDS011;67239;51.680;5.976;2023-04-03T01:38:59;7.30;;;2.80;;
66886;SDS011;67239;51.680;5.976;2023-04-03T01:41:28;7.00;;;2.83;;
66886;SDS011;67239;51.680;5.976;2023-04-03T01:44:03;5.38;;;3.20;;
66886;SDS011;67239;51.680;5.976;2023-04-03T01:46:30;4.97;;;2.97;;
66886;SDS011;67239;51.680;5.976;2023-04-03T01:48:58;4.75;;;2.75;;
66886;SDS011;67239;51.680;5.976;2023-04-03T01:51:25;6.13;;;2.80;;
66886;SDS011;67239;51.680;5.976;2023-04-03T01:53:52;4.95;;;2.50;;
66886;SDS011;67239;51.680;5.976;2023-04-03T01:56:19;4.85;;;2.53;;
66886;SDS011;67239;51.680;5.976;2023-04-03T01:58:47;6.32;;;2.92;;
66886;SDS011;67239;51.680;5.976;2023-04-03T02:01:14;4.00;;;2.65;;
66886;SDS011;67239;51.680;5.976;2023-04-03T02:03:42;4.68;;;2.42;;
66886;SDS011;67239;51.680;5.976;2023-04-03T02:06:09;5.60;;;2.58;;
66886;SDS011;67239;51.680;5.976;2023-04-03T02:08:38;5.13;;;2.78;;
66886;SDS011;67239;51.680;5.976;2023-04-03T02:11:05;4.32;;;2.67;;
66886;SDS011;67239;51.680;5.976;2023-04-03T02:13:33;5.20;;;2.60;;
66886;SDS011;67239;51.680;5.976;2023-04-03T02:16:05;4.80;;;2.53;;
66886;SDS011;67239;51.680;5.976;2023-04-03T02:18:35;4.20;;;2.38;;
66886;SDS011;67239;51.680;5.976;2023-04-03T02:21:02;4.47;;;1.95;;
66886;SDS011;67239;51.680;5.976;2023-04-03T02:23:29;9.13;;;2.72;;
66886;SDS011;67239;51.680;5.976;2023-04-03T02:26:03;7.88;;;2.33;;
66886;SDS011;67239;51.680;5.976;2023-04-03T02:28:33;4.63;;;2.40;;
66886;SDS011;67239;51.680;5.976;2023-04-03T02:31:01;5.03;;;2.28;;
66886;SDS011;67239;51.680;5.976;2023-04-03T02:33:30;4.85;;;2.17;;
66886;SDS011;67239;51.680;5.976;2023-04-03T02:35:58;6.80;;;2.40;;
66886;SDS011;67239;51.680;5.976;2023-04-03T02:38:26;5.82;;;2.40;;
66886;SDS011;67239;51.680;5.976;2023-04-03T02:40:59;4.40;;;2.38;;
66886;SDS011;67239;51.680;5.976;2023-04-03T02:43:31;6.32;;;2.33;;
66886;SDS011;67239;51.680;5.976;2023-04-03T02:45:58;4.85;;;2.40;;
66886;SDS011;67239;51.680;5.976;2023-04-03T02:48:26;5.30;;;2.25;;
66886;SDS011;67239;51.680;5.976;2023-04-03T02:50:54;5.15;;;2.13;;
66886;SDS011;67239;51.680;5.976;2023-04-03T02:53:22;4.47;;;2.17;;
66886;SDS011;67239;51.680;5.976;2023-04-03T02:55:50;4.68;;;2.00;;
66886;SDS011;67239;51.680;5.976;2023-04-03T02:58:17;4.25;;;2.13;;
66886;SDS011;67239;51.680;5.976;2023-04-03T03:00:44;5.00;;;2.38;;
66886;SDS011;67239;51.680;5.976;2023-04-03T03:03:11;5.65;;;2.20;;
66886;SDS011;67239;51.680;5.976;2023-04-03T03:05:40;5.20;;;2.60;;
66886;SDS011;67239;51.680;5.976;2023-04-03T03:08:07;4.00;;;2.25;;
66886;SDS011;67239;51.680;5.976;2023-04-03T03:10:34;5.63;;;2.33;;
66886;SDS011;67239;51.680;5.976;2023-04-03T03:13:01;3.83;;;2.30;;
66886;SDS011;67239;51.680;5.976;2023-04-03T03:15:29;4.38;;;2.40;;
66886;SDS011;67239;51.680;5.976;2023-04-03T03:17:56;5.95;;;2.22;;
66886;SDS011;67239;51.680;5.976;2023-04-03T03:20:23;5.05;;;2.83;;
66886;SDS011;67239;51.680;5.976;2023-04-03T03:22:50;4.65;;;2.13;;
66886;SDS011;67239;51.680;5.976;2023-04-03T03:25:17;5.65;;;2.25;;
66886;SDS011;67239;51.680;5.976;2023-04-03T03:27:44;7.05;;;2.38;;
66886;SDS011;67239;51.680;5.976;2023-04-03T03:30:12;4.45;;;2.20;;
66886;SDS011;67239;51.680;5.976;2023-04-03T03:32:39;5.20;;;2.28;;
66886;SDS011;67239;51.680;5.976;2023-04-03T03:35:06;4.22;;;1.90;;
66886;SDS011;67239;51.680;5.976;2023-04-03T03:37:34;7.30;;;2.63;;
66886;SDS011;67239;51.680;5.976;2023-04-03T03:40:01;7.15;;;2.58;;
66886;SDS011;67239;51.680;5.976;2023-04-03T03:42:30;5.32;;;2.05;;
66886;SDS011;67239;51.680;5.976;2023-04-03T03:44:57;4.22;;;2.30;;
66886;SDS011;67239;51.680;5.976;2023-04-03T03:47:24;4.30;;;2.10;;
66886;SDS011;67239;51.680;5.976;2023-04-03T03:49:52;6.93;;;2.08;;
66886;SDS011;67239;51.680;5.976;2023-04-03T03:52:19;5.75;;;1.95;;
66886;SDS011;67239;51.680;5.976;2023-04-03T03:54:46;4.75;;;2.17;;
66886;SDS011;67239;51.680;5.976;2023-04-03T03:57:15;6.00;;;1.90;;
66886;SDS011;67239;51.680;5.976;2023-04-03T03:59:42;4.18;;;2.17;;
66886;SDS011;67239;51.680;5.976;2023-04-03T04:02:11;4.38;;;2.00;;
66886;SDS011;67239;51.680;5.976;2023-04-03T04:04:38;5.95;;;2.10;;
66886;SDS011;67239;51.680;5.976;2023-04-03T04:07:05;4.53;;;2.10;;
66886;SDS011;67239;51.680;5.976;2023-04-03T04:09:33;4.57;;;1.92;;
66886;SDS011;67239;51.680;5.976;2023-04-03T04:12:01;4.43;;;1.77;;
66886;SDS011;67239;51.680;5.976;2023-04-03T04:14:30;4.60;;;1.90;;
66886;SDS011;67239;51.680;5.976;2023-04-03T04:16:57;5.57;;;2.35;;
66886;SDS011;67239;51.680;5.976;2023-04-03T04:19:26;3.40;;;1.80;;
66886;SDS011;67239;51.680;5.976;2023-04-03T04:21:53;5.38;;;2.30;;
66886;SDS011;67239;51.680;5.976;2023-04-03T04:24:21;6.25;;;1.95;;
66886;SDS011;67239;51.680;5.976;2023-04-03T04:26:51;3.92;;;2.03;;
66886;SDS011;67239;51.680;5.976;2023-04-03T04:29:20;5.53;;;2.10;;
66886;SDS011;67239;51.680;5.976;2023-04-03T04:31:49;6.35;;;2.30;;
66886;SDS011;67239;51.680;5.976;2023-04-03T04:34:16;3.85;;;1.90;;
66886;SDS011;67239;51.680;5.976;2023-04-03T04:36:43;6.45;;;1.90;;
66886;SDS011;67239;51.680;5.976;2023-04-03T04:39:11;5.80;;;1.90;;
66886;SDS011;67239;51.680;5.976;2023-04-03T04:41:39;4.75;;;1.67;;
66886;SDS011;67239;51.680;5.976;2023-04-03T04:44:06;7.43;;;2.13;;
66886;SDS011;67239;51.680;5.976;2023-04-03T04:46:34;4.22;;;1.80;;
66886;SDS011;67239;51.680;5.976;2023-04-03T04:49:02;5.25;;;1.50;;
66886;SDS011;67239;51.680;5.976;2023-04-03T04:51:30;4.90;;;1.88;;
66886;SDS011;67239;51.680;5.976;2023-04-03T04:54:11;4.75;;;2.00;;
66886;SDS011;67239;51.680;5.976;2023-04-03T04:56:38;5.60;;;1.90;;
66886;SDS011;67239;51.680;5.976;2023-04-03T04:59:06;2.90;;;1.92;;
66886;SDS011;67239;51.680;5.976;2023-04-03T05:01:34;4.80;;;1.90;;
66886;SDS011;67239;51.680;5.976;2023-04-03T05:04:07;4.43;;;1.70;;
66886;SDS011;67239;51.680;5.976;2023-04-03T05:06:35;6.38;;;2.00;;
66886;SDS011;67239;51.680;5.976;2023-04-03T05:09:06;5.25;;;1.75;;
66886;SDS011;67239;51.680;5.976;2023-04-03T05:11:34;8.88;;;1.92;;
66886;SDS011;67239;51.680;5.976;2023-04-03T05:14:07;6.15;;;2.08;;
66886;SDS011;67239;51.680;5.976;2023-04-03T05:16:35;4.50;;;2.05;;
66886;SDS011;67239;51.680;5.976;2023-04-03T05:19:03;3.75;;;1.70;;
66886;SDS011;67239;51.680;5.976;2023-04-03T05:21:30;4.38;;;1.75;;
66886;SDS011;67239;51.680;5.976;2023-04-03T05:24:03;4.07;;;1.75;;
66886;SDS011;67239;51.680;5.976;2023-04-03T05:26:33;3.88;;;1.90;;
66886;SDS011;67239;51.680;5.976;2023-04-03T05:29:01;5.63;;;1.92;;
66886;SDS011;67239;51.680;5.976;2023-04-03T05:31:30;5.05;;;1.52;;
66886;SDS011;67239;51.680;5.976;2023-04-03T05:33:58;4.07;;;1.88;;
66886;SDS011;67239;51.680;5.976;2023-04-03T05:36:27;3.63;;;1.80;;
66886;SDS011;67239;51.680;5.976;2023-04-03T05:39:00;5.32;;;2.20;;
66886;SDS011;67239;51.680;5.976;2023-04-03T05:41:27;5.32;;;1.85;;
66886;SDS011;67239;51.680;5.976;2023-04-03T05:43:54;5.15;;;1.60;;
66886;SDS011;67239;51.680;5.976;2023-04-03T05:46:24;6.40;;;1.80;;
66886;SDS011;67239;51.680;5.976;2023-04-03T05:48:57;6.20;;;2.00;;
66886;SDS011;67239;51.680;5.976;2023-04-03T05:51:30;3.50;;;2.20;;
66886;SDS011;67239;51.680;5.976;2023-04-03T05:54:22;4.85;;;1.63;;
66886;SDS011;67239;51.680;5.976;2023-04-03T05:57:05;5.22;;;1.90;;
66886;SDS011;67239;51.680;5.976;2023-04-03T05:59:32;6.30;;;1.60;;
66886;SDS011;67239;51.680;5.976;2023-04-03T06:02:00;6.07;;;1.90;;
66886;SDS011;67239;51.680;5.976;2023-04-03T06:04:27;3.53;;;1.63;;
66886;SDS011;67239;51.680;5.976;2023-04-03T06:06:56;5.88;;;1.88;;
66886;SDS011;67239;51.680;5.976;2023-04-03T06:09:26;6.07;;;1.80;;
66886;SDS011;67239;51.680;5.976;2023-04-03T06:11:55;4.30;;;1.80;;
66886;SDS011;67239;51.680;5.976;2023-04-03T06:14:26;5.53;;;1.80;;
66886;SDS011;67239;51.680;5.976;2023-04-03T06:16:54;5.03;;;1.95;;
66886;SDS011;67239;51.680;5.976;2023-04-03T06:19:21;4.85;;;1.80;;
66886;SDS011;67239;51.680;5.976;2023-04-03T06:21:52;4.05;;;1.85;;
66886;SDS011;67239;51.680;5.976;2023-04-03T06:24:20;3.85;;;1.63;;
66886;SDS011;67239;51.680;5.976;2023-04-03T06:26:49;4.03;;;1.70;;
66886;SDS011;67239;51.680;5.976;2023-04-03T06:29:18;4.30;;;1.90;;
66886;SDS011;67239;51.680;5.976;2023-04-03T06:31:46;4.53;;;1.70;;
66886;SDS011;67239;51.680;5.976;2023-04-03T06:34:14;5.32;;;2.15;;
66886;SDS011;67239;51.680;5.976;2023-04-03T06:36:42;4.00;;;1.80;;
66886;SDS011;67239;51.680;5.976;2023-04-03T06:39:13;4.15;;;1.63;;
66886;SDS011;67239;51.680;5.976;2023-04-03T06:41:43;5.57;;;2.13;;
66886;SDS011;67239;51.680;5.976;2023-04-03T06:44:11;3.58;;;1.90;;
66886;SDS011;67239;51.680;5.976;2023-04-03T06:46:39;5.93;;;2.03;;
66886;SDS011;67239;51.680;5.976;2023-04-03T06:49:06;6.55;;;1.90;;
66886;SDS011;67239;51.680;5.976;2023-04-03T06:51:34;7.05;;;1.85;;
66886;SDS011;67239;51.680;5.976;2023-04-03T06:54:05;4.30;;;2.22;;
66886;SDS011;67239;51.680;5.976;2023-04-03T06:56:35;6.93;;;1.48;;
66886;SDS011;67239;51.680;5.976;2023-04-03T06:59:02;5.68;;;1.60;;
66886;SDS011;67239;51.680;5.976;2023-04-03T07:01:30;5.03;;;1.92;;
66886;SDS011;67239;51.680;5.976;2023-04-03T07:03:58;4.07;;;1.77;;
66886;SDS011;67239;51.680;5.976;2023-04-03T07:06:25;6.15;;;1.98;;
66886;SDS011;67239;51.680;5.976;2023-04-03T07:08:55;4.80;;;1.85;;
66886;SDS011;67239;51.680;5.976;2023-04-03T07:11:22;5.65;;;1.83;;
66886;SDS011;67239;51.680;5.976;2023-04-03T07:13:50;6.05;;;2.00;;
66886;SDS011;67239;51.680;5.976;2023-04-03T07:16:17;3.65;;;1.60;;
66886;SDS011;67239;51.680;5.976;2023-04-03T07:18:46;6.28;;;1.60;;
66886;SDS011;67239;51.680;5.976;2023-04-03T07:21:13;5.97;;;1.73;;
66886;SDS011;67239;51.680;5.976;2023-04-03T07:23:40;4.05;;;1.70;;
66886;SDS011;67239;51.680;5.976;2023-04-03T07:26:07;3.88;;;1.65;;
66886;SDS011;67239;51.680;5.976;2023-04-03T07:28:35;4.63;;;1.50;;
66886;SDS011;67239;51.680;5.976;2023-04-03T07:31:04;4.78;;;1.73;;
66886;SDS011;67239;51.680;5.976;2023-04-03T07:33:38;3.80;;;1.60;;
66886;SDS011;67239;51.680;5.976;2023-04-03T07:36:07;4.78;;;1.70;;
66886;SDS011;67239;51.680;5.976;2023-04-03T07:38:37;4.97;;;1.65;;
66886;SDS011;67239;51.680;5.976;2023-04-03T07:41:04;5.07;;;1.92;;
66886;SDS011;67239;51.680;5.976;2023-04-03T07:43:32;4.88;;;1.55;;
66886;SDS011;67239;51.680;5.976;2023-04-03T07:46:00;6.97;;;1.52;;
66886;SDS011;67239;51.680;5.976;2023-04-03T07:48:28;4.20;;;1.58;;
66886;SDS011;67239;51.680;5.976;2023-04-03T07:50:58;7.00;;;1.50;;
66886;SDS011;67239;51.680;5.976;2023-04-03T07:53:27;5.60;;;1.70;;
66886;SDS011;67239;51.680;5.976;2023-04-03T07:55:58;5.38;;;1.55;;
66886;SDS011;67239;51.680;5.976;2023-04-03T07:58:26;5.32;;;1.80;;
66886;SDS011;67239;51.680;5.976;2023-04-03T08:00:53;8.90;;;1.70;;
66886;SDS011;67239;51.680;5.976;2023-04-03T08:03:21;3.67;;;1.58;;
66886;SDS011;67239;51.680;5.976;2023-04-03T08:05:49;6.15;;;1.50;;
66886;SDS011;67239;51.680;5.976;2023-04-03T08:08:19;6.38;;;1.58;;
66886;SDS011;67239;51.680;5.976;2023-04-03T08:10:50;4.78;;;1.50;;
66886;SDS011;67239;51.680;5.976;2023-04-03T08:13:19;5.85;;;1.58;;
66886;SDS011;67239;51.680;5.976;2023-04-03T08:15:48;3.90;;;1.50;;
66886;SDS011;67239;51.680;5.976;2023-04-03T08:18:15;6.45;;;1.83;;
66886;SDS011;67239;51.680;5.976;2023-04-03T08:20:42;6.22;;;1.40;;
66886;SDS011;67239;51.680;5.976;2023-04-03T08:23:10;3.42;;;1.25;;
66886;SDS011;67239;51.680;5.976;2023-04-03T08:25:41;4.03;;;1.30;;
66886;SDS011;67239;51.680;5.976;2023-04-03T08:28:10;5.25;;;1.70;;
66886;SDS011;67239;51.680;5.976;2023-04-03T08:30:39;5.95;;;1.35;;
66886;SDS011;67239;51.680;5.976;2023-04-03T08:33:08;3.47;;;1.10;;
66886;SDS011;67239;51.680;5.976;2023-04-03T08:35:39;2.55;;;1.10;;
66886;SDS011;67239;51.680;5.976;2023-04-03T08:38:09;3.78;;;1.33;;
66886;SDS011;67239;51.680;5.976;2023-04-03T08:40:37;3.05;;;1.30;;
66886;SDS011;67239;51.680;5.976;2023-04-03T08:43:19;3.80;;;1.15;;
66886;SDS011;67239;51.680;5.976;2023-04-03T08:45:57;3.63;;;1.42;;
66886;SDS011;67239;51.680;5.976;2023-04-03T08:48:33;2.50;;;1.08;;
66886;SDS011;67239;51.680;5.976;2023-04-03T08:51:10;4.28;;;1.10;;
66886;SDS011;67239;51.680;5.976;2023-04-03T08:53:51;2.45;;;1.13;;
66886;SDS011;67239;51.680;5.976;2023-04-03T08:56:31;3.67;;;1.23;;
66886;SDS011;67239;51.680;5.976;2023-04-03T08:59:05;2.95;;;0.98;;
66886;SDS011;67239;51.680;5.976;2023-04-03T09:01:40;2.97;;;0.90;;
66886;SDS011;67239;51.680;5.976;2023-04-03T09:04:13;3.47;;;0.90;;
66886;SDS011;67239;51.680;5.976;2023-04-03T09:06:49;2.80;;;0.98;;
66886;SDS011;67239;51.680;5.976;2023-04-03T09:09:40;3.10;;;0.95;;
66886;SDS011;67239;51.680;5.976;2023-04-03T09:12:17;2.00;;;0.65;;
66886;SDS011;67239;51.680;5.976;2023-04-03T09:20:39;1.45;;;0.50;;
66886;SDS011;67239;51.680;5.976;2023-04-03T09:23:28;2.28;;;0.60;;
66886;SDS011;67239;51.680;5.976;2023-04-03T09:26:09;1.52;;;0.50;;
66886;SDS011;67239;51.680;5.976;2023-04-03T09:28:46;2.53;;;0.60;;
66886;SDS011;67239;51.680;5.976;2023-04-03T09:31:24;1.65;;;0.52;;
66886;SDS011;67239;51.680;5.976;2023-04-03T09:34:02;2.00;;;0.50;;
66886;SDS011;67239;51.680;5.976;2023-04-03T09:36:43;1.15;;;0.50;;
66886;SDS011;67239;51.680;5.976;2023-04-03T09:46:59;1.30;;;0.50;;
66886;SDS011;67239;51.680;5.976;2023-04-03T09:49:45;1.80;;;0.30;;
66886;SDS011;67239;51.680;5.976;2023-04-03T09:52:47;0.93;;;0.40;;
66886;SDS011;67239;51.680;5.976;2023-04-03T09:55:15;1.20;;;0.40;;
66886;SDS011;67239;51.680;5.976;2023-04-03T09:58:03;1.40;;;0.40;;
66886;SDS011;67239;51.680;5.976;2023-04-03T10:00:53;2.13;;;0.45;;
66886;SDS011;67239;51.680;5.976;2023-04-03T10:03:25;0.90;;;0.32;;
66886;SDS011;67239;51.680;5.976;2023-04-03T10:06:02;2.05;;;0.55;;
66886;SDS011;67239;51.680;5.976;2023-04-03T10:08:32;1.67;;;0.50;;
66886;SDS011;67239;51.680;5.976;2023-04-03T10:13:56;0.90;;;0.40;;
66886;SDS011;67239;51.680;5.976;2023-04-03T10:16:36;1.85;;;0.80;;
66886;SDS011;67239;51.680;5.976;2023-04-03T10:25:05;2.50;;;0.50;;
66886;SDS011;67239;51.680;5.976;2023-04-03T10:27:58;3.47;;;0.70;;
66886;SDS011;67239;51.680;5.976;2023-04-03T10:33:28;1.95;;;0.50;;
66886;SDS011;67239;51.680;5.976;2023-04-03T10:42:54;1.15;;;0.60;;
66886;SDS011;67239;51.680;5.976;2023-04-03T10:45:46;2.03;;;0.90;;
66886;SDS011;67239;51.680;5.976;2023-04-03T10:51:27;1.65;;;0.50;;
66886;SDS011;67239;51.680;5.976;2023-04-03T10:54:24;1.95;;;0.50;;
66886;SDS011;67239;51.680;5.976;2023-04-03T10:57:04;2.13;;;0.60;;
66886;SDS011;67239;51.680;5.976;2023-04-03T10:59:46;2.17;;;0.63;;
66886;SDS011;67239;51.680;5.976;2023-04-03T11:05:28;1.85;;;0.70;;
66886;SDS011;67239;51.680;5.976;2023-04-03T11:08:07;2.10;;;0.80;;
66886;SDS011;67239;51.680;5.976;2023-04-03T11:11:08;3.92;;;0.70;;
66886;SDS011;67239;51.680;5.976;2023-04-03T11:13:42;2.28;;;0.52;;
66886;SDS011;67239;51.680;5.976;2023-04-03T11:16:30;4.22;;;0.80;;
66886;SDS011;67239;51.680;5.976;2023-04-03T11:19:20;1.92;;;0.60;;
66886;SDS011;67239;51.680;5.976;2023-04-03T11:23:03;1.80;;;0.60;;
66886;SDS011;67239;51.680;5.976;2023-04-03T11:25:40;3.53;;;0.77;;
66886;SDS011;67239;51.680;5.976;2023-04-03T11:28:12;4.93;;;0.80;;
66886;SDS011;67239;51.680;5.976;2023-04-03T11:30:45;0.95;;;0.57;;
66886;SDS011;67239;51.680;5.976;2023-04-03T11:36:45;2.78;;;0.88;;
66886;SDS011;67239;51.680;5.976;2023-04-03T11:39:21;1.75;;;0.75;;
66886;SDS011;67239;51.680;5.976;2023-04-03T11:41:55;3.88;;;0.80;;
66886;SDS011;67239;51.680;5.976;2023-04-03T11:44:38;2.30;;;0.80;;
66886;SDS011;67239;51.680;5.976;2023-04-03T11:47:06;3.33;;;0.60;;
66886;SDS011;67239;51.680;5.976;2023-04-03T12:11:24;2.50;;;0.60;;
66886;SDS011;67239;51.680;5.976;2023-04-03T12:26:50;3.70;;;0.80;;
66886;SDS011;67239;51.680;5.976;2023-04-03T12:29:46;2.75;;;0.80;;
66886;SDS011;67239;51.680;5.976;2023-04-03T12:32:25;2.58;;;0.80;;
66886;SDS011;67239;51.680;5.976;2023-04-03T12:35:14;2.33;;;0.70;;
66886;SDS011;67239;51.680;5.976;2023-04-03T12:46:53;8.98;;;0.98;;
66886;SDS011;67239;51.680;5.976;2023-04-03T12:51:56;2.10;;;0.95;;
66886;SDS011;67239;51.680;5.976;2023-04-03T12:54:38;3.33;;;1.00;;
66886;SDS011;67239;51.680;5.976;2023-04-03T12:57:11;3.83;;;0.73;;
66886;SDS011;67239;51.680;5.976;2023-04-03T12:59:54;2.00;;;0.80;;
66886;SDS011;67239;51.680;5.976;2023-04-03T13:02:28;3.40;;;0.93;;
66886;SDS011;67239;51.680;5.976;2023-04-03T13:05:07;4.72;;;1.10;;
66886;SDS011;67239;51.680;5.976;2023-04-03T13:07:41;2.92;;;1.00;;
66886;SDS011;67239;51.680;5.976;2023-04-03T13:16:01;1.33;;;0.65;;
66886;SDS011;67239;51.680;5.976;2023-04-03T13:18:23;2.90;;;0.98;;
66886;SDS011;67239;51.680;5.976;2023-04-03T13:20:52;1.83;;;0.93;;
66886;SDS011;67239;51.680;5.976;2023-04-03T13:23:29;2.47;;;1.13;;
66886;SDS011;67239;51.680;5.976;2023-04-03T13:25:58;2.45;;;0.85;;
66886;SDS011;67239;51.680;5.976;2023-04-03T13:28:30;2.88;;;0.70;;
66886;SDS011;67239;51.680;5.976;2023-04-03T13:31:04;1.77;;;0.90;;
66886;SDS011;67239;51.680;5.976;2023-04-03T13:34:10;2.35;;;0.80;;
66886;SDS011;67239;51.680;5.976;2023-04-03T13:37:01;2.08;;;0.75;;
66886;SDS011;67239;51.680;5.976;2023-04-03T13:39:32;2.58;;;0.80;;
66886;SDS011;67239;51.680;5.976;2023-04-03T13:42:20;3.22;;;0.95;;
66886;SDS011;67239;51.680;5.976;2023-04-03T13:47:53;2.33;;;0.90;;
66886;SDS011;67239;51.680;5.976;2023-04-03T13:51:00;3.28;;;1.00;;
66886;SDS011;67239;51.680;5.976;2023-04-03T13:53:45;2.78;;;0.80;;
66886;SDS011;67239;51.680;5.976;2023-04-03T13:56:55;2.50;;;0.80;;
66886;SDS011;67239;51.680;5.976;2023-04-03T13:59:30;3.38;;;1.13;;
66886;SDS011;67239;51.680;5.976;2023-04-03T14:07:12;4.50;;;1.17;;
66886;SDS011;67239;51.680;5.976;2023-04-03T14:09:42;2.15;;;0.95;;
66886;SDS011;67239;51.680;5.976;2023-04-03T14:14:59;1.40;;;0.77;;
66886;SDS011;67239;51.680;5.976;2023-04-03T14:17:28;3.58;;;0.77;;
66886;SDS011;67239;51.680;5.976;2023-04-03T14:19:57;2.17;;;0.80;;
66886;SDS011;67239;51.680;5.976;2023-04-03T14:22:29;1.55;;;0.77;;
66886;SDS011;67239;51.680;5.976;2023-04-03T14:25:01;2.38;;;0.77;;
66886;SDS011;67239;51.680;5.976;2023-04-03T14:27:34;2.40;;;0.90;;
66886;SDS011;67239;51.680;5.976;2023-04-03T14:30:07;2.95;;;0.88;;
66886;SDS011;67239;51.680;5.976;2023-04-03T14:32:41;2.33;;;0.80;;
66886;SDS011;67239;51.680;5.976;2023-04-03T14:35:09;2.33;;;0.90;;
66886;SDS011;67239;51.680;5.976;2023-04-03T14:37:36;2.25;;;0.82;;
66886;SDS011;67239;51.680;5.976;2023-04-03T14:40:05;2.38;;;1.02;;
66886;SDS011;67239;51.680;5.976;2023-04-03T14:42:35;2.90;;;1.10;;
66886;SDS011;67239;51.680;5.976;2023-04-03T14:45:05;6.88;;;1.23;;
66886;SDS011;67239;51.680;5.976;2023-04-03T14:47:39;2.53;;;0.90;;
66886;SDS011;67239;51.680;5.976;2023-04-03T14:50:16;2.38;;;0.85;;
66886;SDS011;67239;51.680;5.976;2023-04-03T14:52:49;2.63;;;1.00;;
66886;SDS011;67239;51.680;5.976;2023-04-03T14:55:21;2.00;;;0.90;;
66886;SDS011;67239;51.680;5.976;2023-04-03T14:57:51;2.88;;;0.90;;
66886;SDS011;67239;51.680;5.976;2023-04-03T15:00:20;2.45;;;0.88;;
66886;SDS011;67239;51.680;5.976;2023-04-03T15:02:49;2.78;;;0.95;;
66886;SDS011;67239;51.680;5.976;2023-04-03T15:05:17;3.30;;;0.90;;
66886;SDS011;67239;51.680;5.976;2023-04-03T15:07:55;2.83;;;0.90;;
66886;SDS011;67239;51.680;5.976;2023-04-03T15:10:25;3.17;;;0.90;;
66886;SDS011;67239;51.680;5.976;2023-04-03T15:12:56;3.63;;;1.10;;
66886;SDS011;67239;51.680;5.976;2023-04-03T15:15:24;3.15;;;0.90;;
66886;SDS011;67239;51.680;5.976;2023-04-03T15:17:56;4.00;;;1.20;;
66886;SDS011;67239;51.680;5.976;2023-04-03T15:20:26;3.40;;;0.98;;
66886;SDS011;67239;51.680;5.976;2023-04-03T15:22:57;2.33;;;0.80;;
66886;SDS011;67239;51.680;5.976;2023-04-03T15:25:27;3.20;;;1.25;;
66886;SDS011;67239;51.680;5.976;2023-04-03T15:27:56;6.22;;;1.17;;
66886;SDS011;67239;51.680;5.976;2023-04-03T15:30:24;2.13;;;0.90;;
66886;SDS011;67239;51.680;5.976;2023-04-03T15:32:51;3.60;;;1.00;;
66886;SDS011;67239;51.680;5.976;2023-04-03T15:35:19;3.13;;;1.05;;
66886;SDS011;67239;51.680;5.976;2023-04-03T15:37:46;2.88;;;0.80;;
66886;SDS011;67239;51.680;5.976;2023-04-03T15:40:14;2.08;;;1.02;;
66886;SDS011;67239;51.680;5.976;2023-04-03T15:42:42;1.52;;;0.80;;
66886;SDS011;67239;51.680;5.976;2023-04-03T15:45:09;4.47;;;0.82;;
66886;SDS011;67239;51.680;5.976;2023-04-03T15:47:36;2.85;;;0.85;;
66886;SDS011;67239;51.680;5.976;2023-04-03T15:50:05;2.47;;;0.90;;
66886;SDS011;67239;51.680;5.976;2023-04-03T15:52:34;2.20;;;0.93;;
66886;SDS011;67239;51.680;5.976;2023-04-03T15:55:02;4.18;;;0.90;;
66886;SDS011;67239;51.680;5.976;2023-04-03T15:57:31;1.63;;;0.82;;
66886;SDS011;67239;51.680;5.976;2023-04-03T16:00:03;2.15;;;1.00;;
66886;SDS011;67239;51.680;5.976;2023-04-03T16:02:32;2.15;;;0.90;;
66886;SDS011;67239;51.680;5.976;2023-04-03T16:05:00;3.75;;;1.00;;
66886;SDS011;67239;51.680;5.976;2023-04-03T16:07:28;2.53;;;0.85;;
66886;SDS011;67239;51.680;5.976;2023-04-03T16:09:56;2.63;;;0.98;;
66886;SDS011;67239;51.680;5.976;2023-04-03T16:12:23;2.33;;;0.88;;
66886;SDS011;67239;51.680;5.976;2023-04-03T16:14:50;1.95;;;1.00;;
66886;SDS011;67239;51.680;5.976;2023-04-03T16:17:18;3.08;;;0.95;;
66886;SDS011;67239;51.680;5.976;2023-04-03T16:19:45;4.68;;;1.20;;
66886;SDS011;67239;51.680;5.976;2023-04-03T16:22:12;2.13;;;0.80;;
66886;SDS011;67239;51.680;5.976;2023-04-03T16:24:39;2.90;;;1.05;;
66886;SDS011;67239;51.680;5.976;2023-04-03T16:27:07;3.97;;;1.10;;
66886;SDS011;67239;51.680;5.976;2023-04-03T16:29:34;3.33;;;0.80;;
66886;SDS011;67239;51.680;5.976;2023-04-03T16:32:03;3.28;;;1.20;;
66886;SDS011;67239;51.680;5.976;2023-04-03T16:34:30;2.95;;;0.80;;
66886;SDS011;67239;51.680;5.976;2023-04-03T16:36:59;4.05;;;1.00;;
66886;SDS011;67239;51.680;5.976;2023-04-03T16:39:27;6.57;;;1.05;;
66886;SDS011;67239;51.680;5.976;2023-04-03T16:41:54;2.95;;;1.15;;
66886;SDS011;67239;51.680;5.976;2023-04-03T16:44:21;2.00;;;1.08;;
66886;SDS011;67239;51.680;5.976;2023-04-03T16:46:48;3.22;;;1.17;;
66886;SDS011;67239;51.680;5.976;2023-04-03T16:49:16;3.45;;;1.20;;
66886;SDS011;67239;51.680;5.976;2023-04-03T16:51:43;3.10;;;1.13;;
66886;SDS011;67239;51.680;5.976;2023-04-03T16:54:11;2.97;;;0.98;;
66886;SDS011;67239;51.680;5.976;2023-04-03T16:56:40;2.05;;;0.80;;
66886;SDS011;67239;51.680;5.976;2023-04-03T16:59:07;2.15;;;0.95;;
66886;SDS011;67239;51.680;5.976;2023-04-03T17:01:34;2.67;;;0.93;;
66886;SDS011;67239;51.680;5.976;2023-04-03T17:04:01;2.38;;;1.10;;
66886;SDS011;67239;51.680;5.976;2023-04-03T17:06:28;3.72;;;1.17;;
66886;SDS011;67239;51.680;5.976;2023-04-03T17:08:56;2.50;;;0.93;;
66886;SDS011;67239;51.680;5.976;2023-04-03T17:11:26;2.35;;;1.10;;
66886;SDS011;67239;51.680;5.976;2023-04-03T17:13:57;2.35;;;0.95;;